Pagrindinis puslapis
METAR-TAF:

METAR-TAF

Oro uostai :

Bandar Lengeh, Iranas

platuma: 26-35N, ilguma: 054-50E, Aukštis: 14 m

Dabartinis oras

Ataskaita buvo paskelbta 45 minutes, ne 10:00 UTC
Vėjas 8 kt iš Pietų/Pietvakarių
Temperatūra 36°C
Drėgmė 67%
Slėgis 1004 hPa
Matomumas: 3000 m
migla

METAR: OIBL 221000Z 20008KT 3000 HZ NSC 36/29 Q1004

Laikas: 14:15 (10:45 UTC)


TAF: trūkstamas

Orai ataskaitas ir orų prognozės (METAR, TAF).

turimą stotys yra geltonos ir raudonos taškus žemėlapyje.

Perkelti pele per norėdami pamatyti stoties vardą.

Tada spustelėkite, norėdami matyti oro stebėjimo ir prognozės.

Norėdami pakeisti žemėlapį: spustelėkite ant žalios mygtukų su juodo kryžiaus žemyn,; žalią mygtuką su brūkšneliu, jei norite nutolinti; arba žalių rodyklių gretimoms žemėlapius.


METAR-TAF: